Commerce, California
Current Conditions -  °F | °C
As of 8:47 AM on Thursday 30 Oct 2014 (Local Time) from KCQT Reporting Station
Clear Clear  
Wind Chill: 66°   Ceiling: Unl
Heat Index: 66°   Visibility: 10mi
Dew Point: 51°   Wind: 3mph
Humidity: 59%   Direction: 20°NNE
Pressure: 29.99"   Gusts: NA
Location:  34.0185°N, 118.199°W
Report Text: KCQT 301547Z AUTO 02003KT 10SM CLR 19/11 A2999 RMK AO2 SLP154 T01890106
Loading
Personal Weather Stations






























Interactive Weather Map
Tropical Storm Tracking
New forecast layout! Learn more

10-Day Weather Forecast

Advertisements
Track Severe Weather on mobile